地図

経路データ

SID SEASON NUMBER BASIN SUBBASIN NAME ISO_TIME NATURE LAT LON WMO_WIND WMO_PRES WMO_AGENCY TRACK_TYPE DIST2LAND LANDFALL IFLAG USA_AGENCY USA_ATCF_ID USA_LAT USA_LON USA_RECORD USA_STATUS USA_WIND USA_PRES USA_SSHS USA_R34_NE USA_R34_SE USA_R34_SW USA_R34_NW USA_R50_NE USA_R50_SE USA_R50_SW USA_R50_NW USA_R64_NE USA_R64_SE USA_R64_SW USA_R64_NW USA_POCI USA_ROCI USA_RMW USA_EYE TOKYO_LAT TOKYO_LON TOKYO_GRADE TOKYO_WIND TOKYO_PRES TOKYO_R50_DIR TOKYO_R50_LONG TOKYO_R50_SHORT TOKYO_R30_DIR TOKYO_R30_LONG TOKYO_R30_SHORT TOKYO_LAND CMA_LAT CMA_LON CMA_CAT CMA_WIND CMA_PRES HKO_LAT HKO_LON HKO_CAT HKO_WIND HKO_PRES NEWDELHI_LAT NEWDELHI_LON NEWDELHI_GRADE NEWDELHI_WIND NEWDELHI_PRES NEWDELHI_CI NEWDELHI_DP NEWDELHI_POCI REUNION_LAT REUNION_LON REUNION_TYPE REUNION_WIND REUNION_PRES REUNION_TNUM REUNION_CI REUNION_RMW REUNION_R34_NE REUNION_R34_SE REUNION_R34_SW REUNION_R34_NW REUNION_R50_NE REUNION_R50_SE REUNION_R50_SW REUNION_R50_NW REUNION_R64_NE REUNION_R64_SE REUNION_R64_SW REUNION_R64_NW BOM_LAT BOM_LON BOM_TYPE BOM_WIND BOM_PRES BOM_TNUM BOM_CI BOM_RMW BOM_R34_NE BOM_R34_SE BOM_R34_SW BOM_R34_NW BOM_R50_NE BOM_R50_SE BOM_R50_SW BOM_R50_NW BOM_R64_NE BOM_R64_SE BOM_R64_SW BOM_R64_NW BOM_ROCI BOM_POCI BOM_EYE BOM_POS_METHOD BOM_PRES_METHOD NADI_LAT NADI_LON NADI_CAT NADI_WIND NADI_PRES WELLINGTON_LAT WELLINGTON_LON WELLINGTON_WIND WELLINGTON_PRES DS824_LAT DS824_LON DS824_STAGE DS824_WIND DS824_PRES TD9636_LAT TD9636_LON TD9636_STAGE TD9636_WIND TD9636_PRES TD9635_LAT TD9635_LON TD9635_WIND TD9635_PRES TD9635_ROCI NEUMANN_LAT NEUMANN_LON NEUMANN_CLASS NEUMANN_WIND NEUMANN_PRES MLC_LAT MLC_LON MLC_CLASS MLC_WIND MLC_PRES USA_GUST BOM_GUST BOM_GUST_PER REUNION_GUST REUNION_GUST_PER USA_SEAHGT USA_SEARAD_NE USA_SEARAD_SE USA_SEARAD_SW USA_SEARAD_NW STORM_SPEED STORM_DIR
1938311N20288 1938 64 NA NA NOT_NAMED 1938-11-07 06:00:00 TS 20.2000 -72.4000 50 hurdat_atl main 39 39 O_____________ hurdat_atl AL091938 20.2000 -72.4000 TS 50 0 14 322
1938311N20288 1938 64 NA NA NOT_NAMED 1938-11-07 09:00:00 TS 20.7654 -72.8766 main 30 0 P_____________ AL091938 20.7654 -72.8766 TS 55 0 14 323
1938311N20288 1938 64 NA NA NOT_NAMED 1938-11-07 12:00:00 TS 21.3000 -73.3000 60 hurdat_atl main 15 15 O_____________ hurdat_atl AL091938 21.3000 -73.3000 TS 60 0 12 325
1938311N20288 1938 64 NA NA NOT_NAMED 1938-11-07 15:00:00 TS 21.7796 -73.6430 main 78 78 P_____________ AL091938 21.7796 -73.6430 TS 60 0 11 324
1938311N20288 1938 64 NA NA NOT_NAMED 1938-11-07 18:00:00 TS 22.2000 -74.0000 60 hurdat_atl main 126 126 O_____________ hurdat_atl AL091938 22.2000 -74.0000 TS 60 0 11 316
1938311N20288 1938 64 NA NA NOT_NAMED 1938-11-07 21:00:00 TS 22.5725 -74.4776 main 186 186 P_____________ AL091938 22.5725 -74.4776 TS 60 0 12 307
1938311N20288 1938 64 NA NA NOT_NAMED 1938-11-08 00:00:00 TS 22.9000 -75.0000 60 hurdat_atl main 221 218 O_____________ hurdat_atl AL091938 22.9000 -75.0000 TS 60 0 11 305
1938311N20288 1938 64 NA NA NOT_NAMED 1938-11-08 03:00:00 TS 23.2223 -75.4927 main 234 205 P_____________ AL091938 23.2223 -75.4927 TS 57 0 11 303
1938311N20288 1938 64 NA NA NOT_NAMED 1938-11-08 06:00:00 TS 23.5000 -76.0000 55 hurdat_atl main 205 151 O_____________ hurdat_atl AL091938 23.5000 -76.0000 TS 55 0 11 299
1938311N20288 1938 64 NA NA NOT_NAMED 1938-11-08 09:00:00 TS 23.7524 -76.5423 main 144 90 P_____________ AL091938 23.7524 -76.5423 TS 52 0 11 292
1938311N20288 1938 64 NA NA NOT_NAMED 1938-11-08 12:00:00 TS 23.9000 -77.1000 50 hurdat_atl main 90 52 O_____________ hurdat_atl AL091938 23.9000 -77.1000 TS 50 0 11 279
1938311N20288 1938 64 NA NA NOT_NAMED 1938-11-08 15:00:00 TS 23.9101 -77.6803 main 45 33 P_____________ AL091938 23.9101 -77.6803 TS 47 0 10 264
1938311N20288 1938 64 NA NA NOT_NAMED 1938-11-08 18:00:00 TS 23.8000 -78.2000 45 hurdat_atl main 49 49 O_____________ hurdat_atl AL091938 23.8000 -78.2000 TS 45 0 9 252
1938311N20288 1938 64 NA NA NOT_NAMED 1938-11-08 21:00:00 TS 23.6447 -78.5798 main 90 90 P_____________ AL091938 23.6447 -78.5798 TS 45 0 8 238
1938311N20288 1938 64 NA NA NOT_NAMED 1938-11-09 00:00:00 TS 23.4000 -78.9000 45 hurdat_atl main 106 60 O_____________ hurdat_atl AL091938 23.4000 -78.9000 TS 45 0 9 227
1938311N20288 1938 64 NA NA NOT_NAMED 1938-11-09 03:00:00 TS 23.0650 -79.2576 main 54 0 P_____________ AL091938 23.0650 -79.2576 TS 45 0 10 223
1938311N20288 1938 64 NA NA NOT_NAMED 1938-11-09 06:00:00 TS 22.7000 -79.6000 45 hurdat_atl main 0 0 O_____________ hurdat_atl AL091938 22.7000 -79.6000 TS 45 0 9 221
1938311N20288 1938 64 NA NA NOT_NAMED 1938-11-09 09:00:00 TS 22.3849 -79.9073 main 0 0 P_____________ AL091938 22.3849 -79.9073 TS 42 0 8 223
1938311N20288 1938 64 NA NA NOT_NAMED 1938-11-09 12:00:00 TS 22.1000 -80.2000 40 hurdat_atl main 0 0 O_____________ hurdat_atl AL091938 22.1000 -80.2000 TS 40 0 8 226
1938311N20288 1938 64 NA CS NOT_NAMED 1938-11-09 15:00:00 TS 21.8425 -80.5074 main 23 23 P_____________ AL091938 21.8425 -80.5074 TS 37 0 8 228
1938311N20288 1938 64 NA CS NOT_NAMED 1938-11-09 18:00:00 TS 21.6000 -80.8000 35 hurdat_atl main 55 55 O_____________ hurdat_atl AL091938 21.6000 -80.8000 TS 35 0 7 226
1938311N20288 1938 64 NA CS NOT_NAMED 1938-11-09 21:00:00 TS 21.3574 -81.0573 main 67 67 P_____________ AL091938 21.3574 -81.0573 TS 32 -1 7 223
1938311N20288 1938 64 NA CS NOT_NAMED 1938-11-10 00:00:00 TS 21.1000 -81.3000 30 hurdat_atl main 101 101 O_____________ hurdat_atl AL091938 21.1000 -81.3000 TD 30 -1 7 220
1938311N20288 1938 64 NA CS NOT_NAMED 1938-11-10 03:00:00 TS 20.8149 -81.5424 main 136 129 P_____________ AL091938 20.8149 -81.5424 TD 30 -1 8 218
1938311N20288 1938 64 NA CS NOT_NAMED 1938-11-10 06:00:00 TS 20.5000 -81.8000 30 hurdat_atl main 142 142 O_____________ hurdat_atl AL091938 20.5000 -81.8000 TD 30 -1 8 218
1938311N20288 1938 64 NA CS NOT_NAMED 1938-11-10 09:00:00 TS 20.1575 -82.0925 main 152 152 P_____________ AL091938 20.1575 -82.0925 TD 27 -1 9 219
1938311N20288 1938 64 NA CS NOT_NAMED 1938-11-10 12:00:00 TS 19.8000 -82.4000 25 hurdat_atl main 183 183 O_____________ hurdat_atl AL091938 19.8000 -82.4000 TD 25 -1 9 219
1938311N20288 1938 64 NA CS NOT_NAMED 1938-11-10 15:00:00 TS 19.4476 -82.7027 main 223 223 P_____________ AL091938 19.4476 -82.7027 TD 25 -1 9 219
1938311N20288 1938 64 NA CS NOT_NAMED 1938-11-10 18:00:00 TS 19.1000 -83.0000 25 hurdat_atl main 258 O_____________ hurdat_atl AL091938 19.1000 -83.0000 TD 25 -1 9 219

IBTrACS Databaseについて

本データベースは、米国NOAAが公開する1842年以降の世界の熱帯低気圧のベストトラックデータアーカイブInternational Best Track Archive for Climate Stewardship (IBTrACS)を、ウェブで閲覧しやすい形式に変換したものです。

最終更新日:2021-12-06